Seihou Maru — JM6496 — position and weather

sailwx.info

Track history (hours):
 
Tides and Currents Weather Stations Pressure Air Temp Water Temp Dewpoint Dewpoint Depression Visibility Wind Speed Wind Dir Waves Ship Positions

Seihou Maru

Last reported at 2018-Apr-27 00:47 UTC. Time now 2018-Apr-27 02:31 UTC.
Position N 35°40' E 139°57'.

Length 71 m; draft 4.5 m.

Type: Tanker. MMSI: 431400523.

Date/timePositionNaut miles runAvg speedWind from/ knotsBaromVisibWave heightAir tempDewpointWater temp
2018-Apr-27 00:47N 35°40' E 139°57'0 0.0
2018-Apr-27 00:23N 35°40' E 139°57'0 0.0
2018-Apr-26 23:53N 35°40' E 139°57'0 0.0
2018-Apr-26 23:29N 35°40' E 139°57'1 1.7
2018-Apr-26 22:59N 35°40' E 139°58'4 8.2
2018-Apr-26 22:30N 35°36' E 139°57'0 0.1
2018-Apr-26 21:58N 35°36' E 139°57'0 0.0
2018-Apr-26 21:28N 35°36' E 139°57'0 0.1
2018-Apr-26 20:58N 35°36' E 139°57'0 0.0
2018-Apr-26 20:28N 35°36' E 139°57'0 0.0
2018-Apr-26 19:58N 35°36' E 139°57'0 0.0
2018-Apr-26 19:28N 35°36' E 139°57'0 0.0
2018-Apr-26 18:58N 35°36' E 139°57'0 0.0
2018-Apr-26 18:28N 35°36' E 139°57'0 0.0
2018-Apr-26 17:52N 35°36' E 139°57'0 0.0
2018-Apr-26 17:28N 35°36' E 139°57'0 0.0
2018-Apr-26 16:58N 35°36' E 139°57'0 0.0
2018-Apr-26 16:22N 35°36' E 139°57'0 0.0
2018-Apr-26 15:55N 35°36' E 139°57'0 0.0
2018-Apr-26 15:28N 35°36' E 139°57'0 0.0
2018-Apr-26 14:58N 35°36' E 139°57'0 0.0
2018-Apr-26 14:28N 35°36' E 139°57'0 0.0
2018-Apr-26 13:58N 35°36' E 139°57'0 0.0
2018-Apr-26 13:28N 35°36' E 139°57'0 0.0
2018-Apr-26 12:58N 35°36' E 139°57'0 0.0
2018-Apr-26 12:22N 35°36' E 139°57'0 0.0
2018-Apr-26 11:07N 35°36' E 139°57'0 0.0
2018-Apr-26 10:58N 35°36' E 139°57'0 0.0
2018-Apr-26 10:28N 35°36' E 139°57'0 0.0
2018-Apr-26 08:37N 35°36' E 139°57'1 5.6
2018-Apr-26 08:31N 35°35' E 139°57'612.2
2018-Apr-26 08:00N 35°30' E 140°01'1 1.1
2018-Apr-26 07:17N 35°30' E 140°02'0 0.0
2018-Apr-26 06:59N 35°30' E 140°02'0 0.0
2018-Apr-26 06:29N 35°30' E 140°02'0 0.0
2018-Apr-26 05:50N 35°30' E 140°02'0 0.0
2018-Apr-26 05:20N 35°30' E 140°02'0 0.0
2018-Apr-26 04:56N 35°30' E 140°02'0 0.0
2018-Apr-26 04:30N 35°30' E 140°02'2 3.1
2018-Apr-26 04:00N 35°31' E 140°01'613.1
2018-Apr-26 03:30N 35°37' E 139°59'4 0.9
2018-Apr-25 23:23N 35°40' E 139°57'2 3.9
2018-Apr-25 22:58N 35°39' E 139°58'4 7.9
2018-Apr-25 22:30N 35°35' E 139°57'0 0.0
2018-Apr-25 21:59N 35°35' E 139°57'0 0.0
2018-Apr-25 21:29N 35°35' E 139°57'0 0.0
2018-Apr-25 20:59N 35°35' E 139°57'0 0.0
2018-Apr-25 20:29N 35°35' E 139°57'0 0.0
2018-Apr-25 19:59N 35°35' E 139°57'0 0.0
2018-Apr-25 19:29N 35°35' E 139°57'0 0.0
2018-Apr-25 18:59N 35°35' E 139°57'0 0.0
2018-Apr-25 18:29N 35°35' E 139°57'0 0.0
2018-Apr-25 17:59N 35°35' E 139°57'0 0.0
2018-Apr-25 17:29N 35°35' E 139°57'0 0.0
2018-Apr-25 16:59N 35°35' E 139°57'0 0.0
2018-Apr-25 16:29N 35°35' E 139°57'0 0.0
2018-Apr-25 15:59N 35°35' E 139°57'0 0.0
2018-Apr-25 15:29N 35°35' E 139°57'0 0.0
2018-Apr-25 14:59N 35°35' E 139°57'0 0.0
2018-Apr-25 14:29N 35°35' E 139°57'0 0.1
2018-Apr-25 13:59N 35°35' E 139°57'0 0.0
2018-Apr-25 13:29N 35°35' E 139°57'0 0.1
2018-Apr-25 12:53N 35°35' E 139°57'0 0.1
2018-Apr-25 12:05N 35°35' E 139°57'0 0.0
2018-Apr-25 11:59N 35°35' E 139°57'0 0.0
2018-Apr-25 11:17N 35°35' E 139°57'0 0.1
2018-Apr-25 10:56N 35°35' E 139°57'0 0.0
2018-Apr-25 10:23N 35°35' E 139°57'0 0.1
2018-Apr-25 10:00N 35°35' E 139°57'5 9.4
2018-Apr-25 09:30N 35°31' E 140°00'2 4.5
2018-Apr-25 09:00N 35°30' E 140°02'0 0.0
2018-Apr-25 08:24N 35°30' E 140°02'0 0.0
2018-Apr-25 08:00N 35°30' E 140°02'0 0.0
2018-Apr-25 07:27N 35°30' E 140°02'0 0.0
2018-Apr-25 06:57N 35°30' E 140°02'0 0.0
2018-Apr-25 06:27N 35°30' E 140°02'0 0.0
2018-Apr-25 06:00N 35°30' E 140°02'0 0.0
2018-Apr-25 05:30N 35°30' E 140°02'0 0.1
2018-Apr-25 05:00N 35°30' E 140°02'511.0
2018-Apr-25 04:30N 35°35' E 139°59'611.4
2018-Apr-25 03:59N 35°40' E 139°57'0 0.1
2018-Apr-25 02:40N 35°40' E 139°57'0 0.0
2018-Apr-25 02:28N 35°40' E 139°57'0 0.0
2018-Apr-25 01:46N 35°40' E 139°57'0 0.0
2018-Apr-25 01:16N 35°40' E 139°57'0 0.0
2018-Apr-25 01:00N 35°40' E 139°57'1 1.9
2018-Apr-25 00:30N 35°40' E 139°58'4 8.9
2018-Apr-25 00:01N 35°35' E 139°56'0 0.2
2018-Apr-24 23:28N 35°36' E 139°56'0 0.0
2018-Apr-24 22:55N 35°36' E 139°56'0 0.0
2018-Apr-24 22:25N 35°36' E 139°56'0 0.0
2018-Apr-24 21:58N 35°36' E 139°56'0 0.0
2018-Apr-24 21:28N 35°36' E 139°56'0 0.0
2018-Apr-24 20:55N 35°36' E 139°56'0 0.0
2018-Apr-24 20:28N 35°36' E 139°56'0 0.0
2018-Apr-24 19:55N 35°36' E 139°56'0 0.0
2018-Apr-24 19:25N 35°36' E 139°56'0 0.0
2018-Apr-24 18:49N 35°36' E 139°56'0 0.0
2018-Apr-24 18:28N 35°36' E 139°56'0 0.0
2018-Apr-24 17:46N 35°36' E 139°56'0 0.0
2018-Apr-24 17:25N 35°36' E 139°56'0 0.0
2018-Apr-24 16:49N 35°36' E 139°56'0 0.0
2018-Apr-24 16:13N 35°36' E 139°56'0 0.0
2018-Apr-24 15:49N 35°36' E 139°56'0 0.0
2018-Apr-24 15:25N 35°36' E 139°56'0 0.0
2018-Apr-24 14:22N 35°35' E 139°56'0 0.0
2018-Apr-24 13:49N 35°35' E 139°56'0 0.0
2018-Apr-24 13:25N 35°35' E 139°56'0 0.0
2018-Apr-24 12:49N 35°35' E 139°56'0 0.0
2018-Apr-24 12:19N 35°35' E 139°56'0 0.0
2018-Apr-24 11:58N 35°35' E 139°56'0 0.0
2018-Apr-24 11:25N 35°35' E 139°56'0 0.0
2018-Apr-24 10:58N 35°35' E 139°56'0 0.0
2018-Apr-24 10:25N 35°35' E 139°56'0 0.0
2018-Apr-24 09:25N 35°36' E 139°56'3 6.4
2018-Apr-24 09:00N 35°33' E 139°58'6 9.1
2018-Apr-24 08:24N 35°29' E 140°01'0 0.0
2018-Apr-24 07:51N 35°29' E 140°01'0 0.0
2018-Apr-24 07:24N 35°29' E 140°01'0 0.0
2018-Apr-24 06:57N 35°29' E 140°01'0 0.0
2018-Apr-24 06:27N 35°29' E 140°01'0 0.0
2018-Apr-24 06:00N 35°29' E 140°01'0 0.0
2018-Apr-24 05:30N 35°29' E 140°01'0 0.0
2018-Apr-24 05:00N 35°29' E 140°01'0 0.0
2018-Apr-24 04:30N 35°29' E 140°01'0 0.0
2018-Apr-24 04:00N 35°29' E 140°01'0 0.0
2018-Apr-24 03:30N 35°29' E 140°01'0 0.8
2018-Apr-24 03:00N 35°29' E 140°01'611.6
2018-Apr-24 02:30N 35°34' E 139°59'6 2.8
2018-Apr-24 00:18N 35°40' E 139°57'1 2.6
2018-Apr-24 00:00N 35°40' E 139°57'4 8.6
2018-Apr-23 23:30N 35°35' E 139°57'0 0.0
2018-Apr-23 22:58N 35°35' E 139°57'0 0.1
2018-Apr-23 22:28N 35°35' E 139°57'0 0.0
2018-Apr-23 21:43N 35°35' E 139°57'0 0.0
2018-Apr-23 21:28N 35°35' E 139°57'0 0.0
2018-Apr-23 20:55N 35°35' E 139°57'0 0.0
2018-Apr-23 20:19N 35°35' E 139°57'0 0.0
2018-Apr-23 19:58N 35°35' E 139°57'0 0.0
2018-Apr-23 19:19N 35°35' E 139°57'0 0.0
2018-Apr-23 18:55N 35°35' E 139°57'0 0.0
2018-Apr-23 18:25N 35°35' E 139°57'0 0.0
2018-Apr-23 17:58N 35°35' E 139°57'0 0.0
2018-Apr-23 17:19N 35°35' E 139°57'0 0.0
2018-Apr-23 16:55N 35°35' E 139°57'0 0.0
2018-Apr-23 16:25N 35°35' E 139°57'0 0.0
2018-Apr-23 15:58N 35°35' E 139°57'0 0.0
2018-Apr-23 15:25N 35°35' E 139°57'0 0.0
2018-Apr-23 14:55N 35°35' E 139°57'0 0.0
2018-Apr-23 14:01N 35°35' E 139°57'0 0.1
2018-Apr-23 13:55N 35°35' E 139°57'0 0.0
2018-Apr-23 13:25N 35°35' E 139°57'0 0.0
2018-Apr-23 12:55N 35°35' E 139°57'0 0.0
2018-Apr-23 12:13N 35°35' E 139°57'0 0.0
2018-Apr-23 11:55N 35°35' E 139°57'0 0.0
2018-Apr-23 11:25N 35°35' E 139°57'0 0.0
2018-Apr-23 10:49N 35°35' E 139°57'0 0.0
2018-Apr-23 10:25N 35°35' E 139°57'0 0.0
2018-Apr-23 09:55N 35°35' E 139°57'0 0.0
2018-Apr-23 09:25N 35°35' E 139°57'0 0.0
2018-Apr-23 08:55N 35°35' E 139°57'0 0.0
2018-Apr-23 08:25N 35°35' E 139°57'0 0.0
2018-Apr-23 07:55N 35°35' E 139°57'1 2.8
2018-Apr-23 07:29N 35°34' E 139°58'511.2
2018-Apr-23 07:00N 35°30' E 140°02'0 0.8
2018-Apr-23 06:30N 35°30' E 140°02'0 0.0
2018-Apr-23 05:58N 35°30' E 140°02'0 0.0
2018-Apr-23 05:30N 35°30' E 140°02'0 0.0
2018-Apr-23 05:00N 35°30' E 140°02'0 0.0
2018-Apr-23 04:30N 35°30' E 140°02'0 0.4
2018-Apr-23 04:00N 35°30' E 140°02'2 3.9
2018-Apr-23 03:30N 35°31' E 140°00'611.5
2018-Apr-23 03:00N 35°37' E 139°59'4 1.9
2018-Apr-23 01:02N 35°40' E 139°57'0 0.3
2018-Apr-23 01:00N 35°40' E 139°57'4 7.2
2018-Apr-23 00:30N 35°37' E 139°58'2 2.8
2018-Apr-22 23:57N 35°36' E 139°57'0 0.0
2018-Apr-22 23:27N 35°36' E 139°57'0 0.0
2018-Apr-22 22:45N 35°36' E 139°57'0 0.0
2018-Apr-22 22:21N 35°36' E 139°57'0 0.0
2018-Apr-22 21:57N 35°36' E 139°57'0 0.0
2018-Apr-22 21:27N 35°36' E 139°57'0 0.0
2018-Apr-22 20:57N 35°36' E 139°57'0 0.0
2018-Apr-22 20:30N 35°36' E 139°57'0 0.0
2018-Apr-22 19:57N 35°36' E 139°57'0 0.0
2018-Apr-22 19:27N 35°36' E 139°57'0 0.0
2018-Apr-22 18:57N 35°36' E 139°57'0 0.0
2018-Apr-22 18:30N 35°36' E 139°57'0 0.0
2018-Apr-22 18:00N 35°36' E 139°57'0 0.0
2018-Apr-22 17:27N 35°36' E 139°57'0 0.1
2018-Apr-22 16:45N 35°36' E 139°57'0 0.2
2018-Apr-22 16:27N 35°36' E 139°57'0 0.0
2018-Apr-22 15:57N 35°36' E 139°57'0 0.0
2018-Apr-22 15:27N 35°36' E 139°57'0 0.0
2018-Apr-22 15:00N 35°36' E 139°57'0 0.0
2018-Apr-22 14:30N 35°36' E 139°57'0 0.0
2018-Apr-22 13:57N 35°36' E 139°57'0 0.0
2018-Apr-22 13:30N 35°36' E 139°57'0 0.0
2018-Apr-22 13:00N 35°36' E 139°57'0 0.0
2018-Apr-22 12:30N 35°36' E 139°57'0 0.0
2018-Apr-22 11:57N 35°36' E 139°57'0 0.0
2018-Apr-22 11:30N 35°36' E 139°57'0 0.0
2018-Apr-22 10:57N 35°36' E 139°57'0 0.0
2018-Apr-22 10:21N 35°36' E 139°57'0 0.0
2018-Apr-22 09:51N 35°36' E 139°57'0 0.0
2018-Apr-22 09:27N 35°36' E 139°57'0 0.0
2018-Apr-22 08:51N 35°36' E 139°57'0 0.0
2018-Apr-22 08:27N 35°36' E 139°57'0 0.0
2018-Apr-22 07:51N 35°36' E 139°57'0 0.0
2018-Apr-22 07:15N 35°36' E 139°57'0 0.0
2018-Apr-22 06:51N 35°36' E 139°57'0 0.0
2018-Apr-22 06:30N 35°36' E 139°57'0 0.0
2018-Apr-22 05:57N 35°36' E 139°57'0 0.0
2018-Apr-22 05:27N 35°36' E 139°57'0 0.0
2018-Apr-22 04:57N 35°36' E 139°57'0 0.0
2018-Apr-22 04:27N 35°36' E 139°57'0 0.0
2018-Apr-22 03:48N 35°36' E 139°57'0 0.0
2018-Apr-22 03:30N 35°36' E 139°57'0 0.0
2018-Apr-22 02:57N 35°36' E 139°57'0 0.0
2018-Apr-22 02:30N 35°36' E 139°57'0 0.0
2018-Apr-22 02:00N 35°36' E 139°57'0 0.0
2018-Apr-22 01:27N 35°36' E 139°57'0 0.0
2018-Apr-22 01:00N 35°36' E 139°57'0 0.0
2018-Apr-22 00:30N 35°36' E 139°57'0 0.0
2018-Apr-22 00:00N 35°36' E 139°57'0 0.0
2018-Apr-21 23:27N 35°36' E 139°57'0 0.0
2018-Apr-21 23:00N 35°36' E 139°57'0 0.0
2018-Apr-21 22:15N 35°36' E 139°57'0 0.0
2018-Apr-21 21:51N 35°36' E 139°57'0 0.0
2018-Apr-21 21:27N 35°36' E 139°57'0 0.0
2018-Apr-21 21:00N 35°36' E 139°57'0 0.0
2018-Apr-21 20:15N 35°36' E 139°57'0 0.0
2018-Apr-21 20:00N 35°36' E 139°57'0 0.0
2018-Apr-21 19:30N 35°36' E 139°57'0 0.0
2018-Apr-21 18:45N 35°36' E 139°57'0 0.0
2018-Apr-21 18:27N 35°36' E 139°57'0 0.0
2018-Apr-21 17:57N 35°36' E 139°57'0 0.0
2018-Apr-21 17:27N 35°36' E 139°57'0 0.0
2018-Apr-21 16:51N 35°36' E 139°57'0 0.0
2018-Apr-21 16:21N 35°36' E 139°57'0 0.0
2018-Apr-21 15:57N 35°36' E 139°57'0 0.0
2018-Apr-21 15:27N 35°36' E 139°57'0 0.0
2018-Apr-21 14:57N 35°36' E 139°57'0 0.0
2018-Apr-21 14:15N 35°36' E 139°57'0 0.0
2018-Apr-21 13:51N 35°36' E 139°57'0 0.0
2018-Apr-21 13:09N 35°36' E 139°57'0 0.0
2018-Apr-21 13:00N 35°36' E 139°57'0 0.0
2018-Apr-21 12:24N 35°36' E 139°57'0 0.0
2018-Apr-21 11:45N 35°36' E 139°57'0 0.0
2018-Apr-21 11:27N 35°36' E 139°57'0 0.0
2018-Apr-21 10:51N 35°36' E 139°57'0 0.0
2018-Apr-21 10:15N 35°36' E 139°57'0 0.0
2018-Apr-21 09:57N 35°36' E 139°57'0 0.0
2018-Apr-21 09:21N 35°36' E 139°57'0 0.0
2018-Apr-21 08:57N 35°36' E 139°57'0 0.0
2018-Apr-21 08:27N 35°36' E 139°57'0 0.1
2018-Apr-21 07:54N 35°36' E 139°57'0 0.1
2018-Apr-21 07:27N 35°36' E 139°57'0 0.0
2018-Apr-21 07:00N 35°36' E 139°57'0 0.1
2018-Apr-21 06:30N 35°36' E 139°57'0 0.0
2018-Apr-21 06:00N 35°36' E 139°57'0 0.0
2018-Apr-21 05:30N 35°36' E 139°57'0 0.0
2018-Apr-21 04:54N 35°36' E 139°57'0 0.0
2018-Apr-21 04:30N 35°36' E 139°57'0 0.0
2018-Apr-21 03:51N 35°36' E 139°57'0 0.0
2018-Apr-21 03:27N 35°36' E 139°57'0 0.0
2018-Apr-21 02:57N 35°36' E 139°57'3 6.1
2018-Apr-21 02:30N 35°33' E 139°58'5 9.6
2018-Apr-21 02:00N 35°30' E 140°02'0 0.1
2018-Apr-21 01:27N 35°30' E 140°02'0 0.0
2018-Apr-21 01:00N 35°30' E 140°02'0 0.0
2018-Apr-21 00:21N 35°30' E 140°02'0 0.0
2018-Apr-20 23:54N 35°30' E 140°02'0 0.0
2018-Apr-20 23:27N 35°30' E 140°02'1 1.1
2018-Apr-20 23:00N 35°30' E 140°02'1 2.1
2018-Apr-20 22:27N 35°30' E 140°00'0 0.0
2018-Apr-20 22:00N 35°30' E 140°00'0 0.0
2018-Apr-20 21:30N 35°30' E 140°00'0 0.0
2018-Apr-20 21:00N 35°30' E 140°00'0 0.0
2018-Apr-20 20:30N 35°30' E 140°00'0 0.0
2018-Apr-20 20:00N 35°30' E 140°00'0 0.0
2018-Apr-20 19:27N 35°30' E 140°00'0 0.0
2018-Apr-20 18:57N 35°30' E 140°00'0 0.0
2018-Apr-20 18:30N 35°30' E 140°00'0 0.0
2018-Apr-20 17:57N 35°30' E 140°00'0 0.1
2018-Apr-20 17:30N 35°30' E 140°00'0 0.0
2018-Apr-20 17:00N 35°30' E 140°00'0 0.0
2018-Apr-20 16:27N 35°30' E 140°00'0 0.0
2018-Apr-20 16:00N 35°30' E 140°00'0 0.1
2018-Apr-20 15:30N 35°30' E 140°00'0 0.0
2018-Apr-20 15:00N 35°30' E 140°00'0 0.0
2018-Apr-20 14:27N 35°30' E 140°00'0 0.0
2018-Apr-20 13:57N 35°30' E 140°00'0 0.0
2018-Apr-20 13:27N 35°30' E 140°00'0 0.0
2018-Apr-20 13:00N 35°30' E 140°00'0 0.1
2018-Apr-20 12:31N 35°30' E 140°00'611.5
2018-Apr-20 12:00N 35°29' E 139°53'612.8
2018-Apr-20 11:30N 35°25' E 139°47'612.7
2018-Apr-20 11:00N 35°19' E 139°44'612.6
2018-Apr-20 10:30N 35°13' E 139°47'713.1
2018-Apr-20 10:00N 35°07' E 139°46'612.9
2018-Apr-20 09:30N 35°02' E 139°40'713.2
2018-Apr-20 09:00N 34°58' E 139°34'913.9
2018-Apr-20 08:21N 34°53' E 139°25'814.3
2018-Apr-20 07:46N 34°48' E 139°17'513.8
2018-Apr-20 07:26N 34°45' E 139°12'613.6
2018-Apr-20 07:00N 34°41' E 139°07'713.5
2018-Apr-20 06:29N 34°37' E 138°60'713.1
2018-Apr-20 05:56N 34°35' E 138°51'613.6
2018-Apr-20 05:29N 34°37' E 138°44'612.9
2018-Apr-20 05:00N 34°40' E 138°37'612.8
2018-Apr-20 04:30N 34°42' E 138°30'712.8
2018-Apr-20 04:00N 34°45' E 138°23'4 0.9
2018-Apr-19 23:03N 34°47' E 138°18'0 0.9
2018-Apr-19 22:59N 34°47' E 138°18'1 2.8
2018-Apr-19 22:28N 34°46' E 138°19'0 0.0
2018-Apr-19 21:58N 34°46' E 138°19'0 0.1
2018-Apr-19 21:28N 34°46' E 138°20'0 0.0
2018-Apr-19 20:58N 34°46' E 138°20'0 0.0
2018-Apr-19 20:28N 34°46' E 138°20'0 0.0
2018-Apr-19 19:58N 34°46' E 138°20'0 0.0
2018-Apr-19 19:19N 34°46' E 138°20'0 0.0
2018-Apr-19 18:55N 34°46' E 138°20'0 0.0
2018-Apr-19 18:28N 34°46' E 138°20'0 0.0
2018-Apr-19 17:58N 34°46' E 138°20'0 0.0
2018-Apr-19 17:28N 34°46' E 138°20'0 0.0
2018-Apr-19 16:58N 34°46' E 138°20'0 0.0
2018-Apr-19 16:22N 34°46' E 138°20'0 0.0
2018-Apr-19 15:58N 34°46' E 138°20'0 0.0
2018-Apr-19 15:28N 34°46' E 138°20'0 0.0
2018-Apr-19 14:55N 34°46' E 138°20'0 0.0
2018-Apr-19 14:28N 34°46' E 138°20'3 6.5
2018-Apr-19 14:00N 34°45' E 138°23'612.1
2018-Apr-19 13:30N 34°42' E 138°30'612.5
2018-Apr-19 13:00N 34°40' E 138°37'612.3
2018-Apr-19 12:28N 34°37' E 138°44'812.4
2018-Apr-19 11:52N 34°36' E 138°53'513.3
2018-Apr-19 11:27N 34°38' E 138°59'613.2
2018-Apr-19 10:59N 34°43' E 139°04'712.4
2018-Apr-19 10:25N 34°48' E 139°09'512.3
2018-Apr-19 09:58N 34°52' E 139°13'612.3
2018-Apr-19 09:30N 34°57' E 139°17'612.1
2018-Apr-19 09:00N 34°60' E 139°24'611.6
2018-Apr-19 08:30N 35°02' E 139°30'612.4
2018-Apr-19 08:00N 35°05' E 139°37'612.7
2018-Apr-19 07:30N 35°09' E 139°43'611.9
2018-Apr-19 07:00N 35°14' E 139°46'611.7
2018-Apr-19 06:30N 35°20' E 139°43'510.8
2018-Apr-19 06:00N 35°25' E 139°44'612.0
2018-Apr-19 05:30N 35°28' E 139°50'611.9
2018-Apr-19 05:00N 35°30' E 139°57'4 8.7
2018-Apr-19 04:30N 35°30' E 140°02'0 0.1
2018-Apr-19 04:00N 35°30' E 140°02'0 0.0
2018-Apr-19 03:12N 35°30' E 140°02'0 0.0
2018-Apr-19 03:00N 35°30' E 140°02'0 0.0
2018-Apr-19 02:27N 35°30' E 140°02'0 0.0
2018-Apr-19 01:54N 35°30' E 140°02'0 0.0
2018-Apr-19 00:57N 35°30' E 140°02'0 0.0
2018-Apr-19 00:24N 35°30' E 140°02'0 0.0
2018-Apr-18 23:54N 35°30' E 140°02'0 0.0
2018-Apr-18 23:27N 35°30' E 140°02'0 0.0
2018-Apr-18 23:00N 35°30' E 140°02'2 3.2
2018-Apr-18 22:30N 35°30' E 140°00'0 0.0
2018-Apr-18 21:59N 35°30' E 140°00'0 0.0
2018-Apr-18 21:11N 35°30' E 140°00'0 0.0
2018-Apr-18 20:59N 35°30' E 140°00'0 0.0
2018-Apr-18 20:29N 35°30' E 140°00'0 0.1
2018-Apr-18 19:56N 35°30' E 140°00'0 0.1
2018-Apr-18 19:29N 35°30' E 140°00'0 0.0
2018-Apr-18 18:59N 35°30' E 140°00'0 0.0
2018-Apr-18 18:29N 35°30' E 140°00'0 0.0
2018-Apr-18 17:58N 35°30' E 140°00'0 0.0
2018-Apr-18 17:29N 35°30' E 140°00'0 0.0
2018-Apr-18 16:59N 35°30' E 140°00'0 0.0
2018-Apr-18 16:29N 35°30' E 140°00'0 0.1
2018-Apr-18 15:59N 35°30' E 140°00'0 0.0
2018-Apr-18 15:23N 35°30' E 140°00'0 0.0
2018-Apr-18 14:59N 35°30' E 140°00'0 0.0
2018-Apr-18 14:23N 35°30' E 140°00'0 0.0
2018-Apr-18 13:59N 35°30' E 140°00'0 0.0
2018-Apr-18 13:26N 35°30' E 140°00'0 0.0
2018-Apr-18 12:53N 35°30' E 140°00'0 0.0
2018-Apr-18 12:29N 35°30' E 140°00'0 0.0
2018-Apr-18 11:59N 35°30' E 140°00'0 0.0
2018-Apr-18 11:29N 35°30' E 140°00'3 6.0
2018-Apr-18 11:00N 35°30' E 139°57'612.0
2018-Apr-18 10:30N 35°27' E 139°50'612.1
2018-Apr-18 10:00N 35°23' E 139°46'611.1
2018-Apr-18 09:30N 35°17' E 139°46'612.3
2018-Apr-18 09:00N 35°11' E 139°47'612.4
2018-Apr-18 08:30N 35°05' E 139°45'612.4
2018-Apr-18 08:00N 35°01' E 139°39'612.7
2018-Apr-18 07:30N 34°57' E 139°33'913.0
2018-Apr-18 06:49N 34°52' E 139°24'712.8
2018-Apr-18 06:17N 34°48' E 139°17'413.4
2018-Apr-18 05:59N 34°45' E 139°13'712.8
2018-Apr-18 05:27N 34°42' E 139°07'711.9
2018-Apr-18 04:51N 34°37' E 138°59'411.8
2018-Apr-18 04:30N 34°35' E 138°55'713.1
2018-Apr-18 03:56N 34°36' E 138°46'612.8
2018-Apr-18 03:30N 34°39' E 138°40'712.6
2018-Apr-18 02:58N 34°41' E 138°33'612.4
2018-Apr-18 02:28N 34°44' E 138°26'611.8
2018-Apr-18 01:59N 34°46' E 138°20'1 0.5
2018-Apr-17 22:54N 34°47' E 138°18'1 1.9
2018-Apr-17 22:18N 34°46' E 138°19'0 0.0
2018-Apr-17 21:42N 34°46' E 138°19'0 0.0
2018-Apr-17 21:27N 34°46' E 138°19'0 0.0
2018-Apr-17 20:57N 34°46' E 138°19'0 0.0
2018-Apr-17 20:30N 34°46' E 138°19'0 0.0
2018-Apr-17 19:57N 34°46' E 138°19'0 0.0
2018-Apr-17 19:30N 34°46' E 138°19'0 0.0
2018-Apr-17 18:57N 34°46' E 138°19'0 0.0
2018-Apr-17 18:27N 34°46' E 138°19'0 0.0
2018-Apr-17 17:48N 34°46' E 138°19'0 0.0
2018-Apr-17 16:03N 34°46' E 138°19'0 0.0
2018-Apr-17 15:51N 34°46' E 138°19'1 3.1
2018-Apr-17 15:29N 34°46' E 138°20'613.0
2018-Apr-17 15:00N 34°44' E 138°28'713.0
2018-Apr-17 14:29N 34°41' E 138°35'712.8
2018-Apr-17 13:58N 34°38' E 138°42'613.3
2018-Apr-17 13:31N 34°35' E 138°49'712.7
2018-Apr-17 12:58N 34°36' E 138°57'612.7
2018-Apr-17 12:30N 34°41' E 139°02'713.7
2018-Apr-17 11:59N 34°47' E 139°08'713.8
2018-Apr-17 11:27N 34°52' E 139°13'613.2
2018-Apr-17 10:59N 34°57' E 139°18'612.4
2018-Apr-17 10:29N 34°60' E 139°25'611.9
2018-Apr-17 09:59N 35°02' E 139°31'612.6
2018-Apr-17 09:30N 35°05' E 139°38'713.4
2018-Apr-17 09:00N 35°10' E 139°44'612.3
2018-Apr-17 08:30N 35°16' E 139°46'612.4
2018-Apr-17 08:00N 35°21' E 139°42'611.8
2018-Apr-17 07:30N 35°26' E 139°46'612.7
2018-Apr-17 07:00N 35°30' E 139°52'612.1
2018-Apr-17 06:30N 35°30' E 139°59'2 4.9
2018-Apr-17 06:00N 35°30' E 140°02'0 0.0
2018-Apr-17 05:30N 35°30' E 140°02'0 0.0
2018-Apr-17 05:00N 35°30' E 140°02'0 0.0
2018-Apr-17 04:30N 35°30' E 140°02'0 0.0
2018-Apr-17 03:59N 35°30' E 140°02'0 0.0
2018-Apr-17 03:30N 35°30' E 140°02'1 2.1
2018-Apr-17 02:58N 35°30' E 140°01'612.9
2018-Apr-17 02:30N 35°36' E 139°59'  
Track history (hours):
 
Tides and Currents Weather Stations Pressure Air Temp Water Temp Dewpoint Dewpoint Depression Visibility Wind Speed Wind Dir Waves Ship Positions

Seihou Maru

Last reported at 2018-Apr-27 00:47 UTC. Time now 2018-Apr-27 02:31 UTC.
Position N 35°40' E 139°57'.

Length 71 m; draft 4.5 m.

Type: Tanker. MMSI: 431400523.

Date/timePositionNaut miles runAvg speedWind from/ knotsBaromVisibWave heightAir tempDewpointWater temp
2018-Apr-27 00:47N 35°40' E 139°57'0 0.0
2018-Apr-27 00:23N 35°40' E 139°57'0 0.0
2018-Apr-26 23:53N 35°40' E 139°57'0 0.0
2018-Apr-26 23:29N 35°40' E 139°57'1 1.7
2018-Apr-26 22:59N 35°40' E 139°58'4 8.2
2018-Apr-26 22:30N 35°36' E 139°57'0 0.1
2018-Apr-26 21:58N 35°36' E 139°57'0 0.0
2018-Apr-26 21:28N 35°36' E 139°57'0 0.1
2018-Apr-26 20:58N 35°36' E 139°57'0 0.0
2018-Apr-26 20:28N 35°36' E 139°57'0 0.0
2018-Apr-26 19:58N 35°36' E 139°57'0 0.0
2018-Apr-26 19:28N 35°36' E 139°57'0 0.0
2018-Apr-26 18:58N 35°36' E 139°57'0 0.0
2018-Apr-26 18:28N 35°36' E 139°57'0 0.0
2018-Apr-26 17:52N 35°36' E 139°57'0 0.0
2018-Apr-26 17:28N 35°36' E 139°57'0 0.0
2018-Apr-26 16:58N 35°36' E 139°57'0 0.0
2018-Apr-26 16:22N 35°36' E 139°57'0 0.0
2018-Apr-26 15:55N 35°36' E 139°57'0 0.0
2018-Apr-26 15:28N 35°36' E 139°57'0 0.0
2018-Apr-26 14:58N 35°36' E 139°57'0 0.0
2018-Apr-26 14:28N 35°36' E 139°57'0 0.0
2018-Apr-26 13:58N 35°36' E 139°57'0 0.0
2018-Apr-26 13:28N 35°36' E 139°57'0 0.0
2018-Apr-26 12:58N 35°36' E 139°57'0 0.0
2018-Apr-26 12:22N 35°36' E 139°57'0 0.0
2018-Apr-26 11:07N 35°36' E 139°57'0 0.0
2018-Apr-26 10:58N 35°36' E 139°57'0 0.0
2018-Apr-26 10:28N 35°36' E 139°57'0 0.0
2018-Apr-26 08:37N 35°36' E 139°57'1 5.6
2018-Apr-26 08:31N 35°35' E 139°57'612.2
2018-Apr-26 08:00N 35°30' E 140°01'1 1.1
2018-Apr-26 07:17N 35°30' E 140°02'0 0.0
2018-Apr-26 06:59N 35°30' E 140°02'0 0.0
2018-Apr-26 06:29N 35°30' E 140°02'0 0.0
2018-Apr-26 05:50N 35°30' E 140°02'0 0.0
2018-Apr-26 05:20N 35°30' E 140°02'0 0.0
2018-Apr-26 04:56N 35°30' E 140°02'0 0.0
2018-Apr-26 04:30N 35°30' E 140°02'2 3.1
2018-Apr-26 04:00N 35°31' E 140°01'613.1
2018-Apr-26 03:30N 35°37' E 139°59'4 0.9
2018-Apr-25 23:23N 35°40' E 139°57'2 3.9
2018-Apr-25 22:58N 35°39' E 139°58'4 7.9
2018-Apr-25 22:30N 35°35' E 139°57'0 0.0
2018-Apr-25 21:59N 35°35' E 139°57'0 0.0
2018-Apr-25 21:29N 35°35' E 139°57'0 0.0
2018-Apr-25 20:59N 35°35' E 139°57'0 0.0
2018-Apr-25 20:29N 35°35' E 139°57'0 0.0
2018-Apr-25 19:59N 35°35' E 139°57'0 0.0
2018-Apr-25 19:29N 35°35' E 139°57'0 0.0
2018-Apr-25 18:59N 35°35' E 139°57'0 0.0
2018-Apr-25 18:29N 35°35' E 139°57'0 0.0
2018-Apr-25 17:59N 35°35' E 139°57'0 0.0
2018-Apr-25 17:29N 35°35' E 139°57'0 0.0
2018-Apr-25 16:59N 35°35' E 139°57'0 0.0
2018-Apr-25 16:29N 35°35' E 139°57'0 0.0
2018-Apr-25 15:59N 35°35' E 139°57'0 0.0
2018-Apr-25 15:29N 35°35' E 139°57'0 0.0
2018-Apr-25 14:59N 35°35' E 139°57'0 0.0
2018-Apr-25 14:29N 35°35' E 139°57'0 0.1
2018-Apr-25 13:59N 35°35' E 139°57'0 0.0
2018-Apr-25 13:29N 35°35' E 139°57'0 0.1
2018-Apr-25 12:53N 35°35' E 139°57'0 0.1
2018-Apr-25 12:05N 35°35' E 139°57'0 0.0
2018-Apr-25 11:59N 35°35' E 139°57'0 0.0
2018-Apr-25 11:17N 35°35' E 139°57'0 0.1
2018-Apr-25 10:56N 35°35' E 139°57'0 0.0
2018-Apr-25 10:23N 35°35' E 139°57'0 0.1
2018-Apr-25 10:00N 35°35' E 139°57'5 9.4
2018-Apr-25 09:30N 35°31' E 140°00'2 4.5
2018-Apr-25 09:00N 35°30' E 140°02'0 0.0
2018-Apr-25 08:24N 35°30' E 140°02'0 0.0
2018-Apr-25 08:00N 35°30' E 140°02'0 0.0
2018-Apr-25 07:27N 35°30' E 140°02'0 0.0
2018-Apr-25 06:57N 35°30' E 140°02'0 0.0
2018-Apr-25 06:27N 35°30' E 140°02'0 0.0
2018-Apr-25 06:00N 35°30' E 140°02'0 0.0
2018-Apr-25 05:30N 35°30' E 140°02'0 0.1
2018-Apr-25 05:00N 35°30' E 140°02'511.0
2018-Apr-25 04:30N 35°35' E 139°59'611.4
2018-Apr-25 03:59N 35°40' E 139°57'0 0.1
2018-Apr-25 02:40N 35°40' E 139°57'0 0.0
2018-Apr-25 02:28N 35°40' E 139°57'0 0.0
2018-Apr-25 01:46N 35°40' E 139°57'0 0.0
2018-Apr-25 01:16N 35°40' E 139°57'0 0.0
2018-Apr-25 01:00N 35°40' E 139°57'1 1.9
2018-Apr-25 00:30N 35°40' E 139°58'4 8.9
2018-Apr-25 00:01N 35°35' E 139°56'0 0.2
2018-Apr-24 23:28N 35°36' E 139°56'0 0.0
2018-Apr-24 22:55N 35°36' E 139°56'0 0.0
2018-Apr-24 22:25N 35°36' E 139°56'0 0.0
2018-Apr-24 21:58N 35°36' E 139°56'0 0.0
2018-Apr-24 21:28N 35°36' E 139°56'0 0.0
2018-Apr-24 20:55N 35°36' E 139°56'0 0.0
2018-Apr-24 20:28N 35°36' E 139°56'0 0.0
2018-Apr-24 19:55N 35°36' E 139°56'0 0.0
2018-Apr-24 19:25N 35°36' E 139°56'0 0.0
2018-Apr-24 18:49N 35°36' E 139°56'0 0.0
2018-Apr-24 18:28N 35°36' E 139°56'0 0.0
2018-Apr-24 17:46N 35°36' E 139°56'0 0.0
2018-Apr-24 17:25N 35°36' E 139°56'0 0.0
2018-Apr-24 16:49N 35°36' E 139°56'0 0.0
2018-Apr-24 16:13N 35°36' E 139°56'0 0.0
2018-Apr-24 15:49N 35°36' E 139°56'0 0.0
2018-Apr-24 15:25N 35°36' E 139°56'0 0.0
2018-Apr-24 14:22N 35°35' E 139°56'0 0.0
2018-Apr-24 13:49N 35°35' E 139°56'0 0.0
2018-Apr-24 13:25N 35°35' E 139°56'0 0.0
2018-Apr-24 12:49N 35°35' E 139°56'0 0.0
2018-Apr-24 12:19N 35°35' E 139°56'0 0.0
2018-Apr-24 11:58N 35°35' E 139°56'0 0.0
2018-Apr-24 11:25N 35°35' E 139°56'0 0.0
2018-Apr-24 10:58N 35°35' E 139°56'0 0.0
2018-Apr-24 10:25N 35°35' E 139°56'0 0.0
2018-Apr-24 09:25N 35°36' E 139°56'3 6.4
2018-Apr-24 09:00N 35°33' E 139°58'6 9.1
2018-Apr-24 08:24N 35°29' E 140°01'0 0.0
2018-Apr-24 07:51N 35°29' E 140°01'0 0.0
2018-Apr-24 07:24N 35°29' E 140°01'0 0.0
2018-Apr-24 06:57N 35°29' E 140°01'0 0.0
2018-Apr-24 06:27N 35°29' E 140°01'0 0.0
2018-Apr-24 06:00N 35°29' E 140°01'0 0.0
2018-Apr-24 05:30N 35°29' E 140°01'0 0.0
2018-Apr-24 05:00N 35°29' E 140°01'0 0.0
2018-Apr-24 04:30N 35°29' E 140°01'0 0.0
2018-Apr-24 04:00N 35°29' E 140°01'0 0.0
2018-Apr-24 03:30N 35°29' E 140°01'0 0.8
2018-Apr-24 03:00N 35°29' E 140°01'611.6
2018-Apr-24 02:30N 35°34' E 139°59'6 2.8
2018-Apr-24 00:18N 35°40' E 139°57'1 2.6
2018-Apr-24 00:00N 35°40' E 139°57'4 8.6
2018-Apr-23 23:30N 35°35' E 139°57'0 0.0
2018-Apr-23 22:58N 35°35' E 139°57'0 0.1
2018-Apr-23 22:28N 35°35' E 139°57'0 0.0
2018-Apr-23 21:43N 35°35' E 139°57'0 0.0
2018-Apr-23 21:28N 35°35' E 139°57'0 0.0
2018-Apr-23 20:55N 35°35' E 139°57'0 0.0
2018-Apr-23 20:19N 35°35' E 139°57'0 0.0
2018-Apr-23 19:58N 35°35' E 139°57'0 0.0
2018-Apr-23 19:19N 35°35' E 139°57'0 0.0
2018-Apr-23 18:55N 35°35' E 139°57'0 0.0
2018-Apr-23 18:25N 35°35' E 139°57'0 0.0
2018-Apr-23 17:58N 35°35' E 139°57'0 0.0
2018-Apr-23 17:19N 35°35' E 139°57'0 0.0
2018-Apr-23 16:55N 35°35' E 139°57'0 0.0
2018-Apr-23 16:25N 35°35' E 139°57'0 0.0
2018-Apr-23 15:58N 35°35' E 139°57'0 0.0
2018-Apr-23 15:25N 35°35' E 139°57'0 0.0
2018-Apr-23 14:55N 35°35' E 139°57'0 0.0
2018-Apr-23 14:01N 35°35' E 139°57'0 0.1
2018-Apr-23 13:55N 35°35' E 139°57'0 0.0
2018-Apr-23 13:25N 35°35' E 139°57'0 0.0
2018-Apr-23 12:55N 35°35' E 139°57'0 0.0
2018-Apr-23 12:13N 35°35' E 139°57'0 0.0
2018-Apr-23 11:55N 35°35' E 139°57'0 0.0
2018-Apr-23 11:25N 35°35' E 139°57'0 0.0
2018-Apr-23 10:49N 35°35' E 139°57'0 0.0
2018-Apr-23 10:25N 35°35' E 139°57'0 0.0
2018-Apr-23 09:55N 35°35' E 139°57'0 0.0
2018-Apr-23 09:25N 35°35' E 139°57'0 0.0
2018-Apr-23 08:55N 35°35' E 139°57'0 0.0
2018-Apr-23 08:25N 35°35' E 139°57'0 0.0
2018-Apr-23 07:55N 35°35' E 139°57'1 2.8
2018-Apr-23 07:29N 35°34' E 139°58'511.2
2018-Apr-23 07:00N 35°30' E 140°02'0 0.8
2018-Apr-23 06:30N 35°30' E 140°02'0 0.0
2018-Apr-23 05:58N 35°30' E 140°02'0 0.0
2018-Apr-23 05:30N 35°30' E 140°02'0 0.0
2018-Apr-23 05:00N 35°30' E 140°02'0 0.0
2018-Apr-23 04:30N 35°30' E 140°02'0 0.4
2018-Apr-23 04:00N 35°30' E 140°02'2 3.9
2018-Apr-23 03:30N 35°31' E 140°00'611.5
2018-Apr-23 03:00N 35°37' E 139°59'4 1.9
2018-Apr-23 01:02N 35°40' E 139°57'0 0.3
2018-Apr-23 01:00N 35°40' E 139°57'4 7.2
2018-Apr-23 00:30N 35°37' E 139°58'2 2.8
2018-Apr-22 23:57N 35°36' E 139°57'0 0.0
2018-Apr-22 23:27N 35°36' E 139°57'0 0.0
2018-Apr-22 22:45N 35°36' E 139°57'0 0.0
2018-Apr-22 22:21N 35°36' E 139°57'0 0.0
2018-Apr-22 21:57N 35°36' E 139°57'0 0.0
2018-Apr-22 21:27N 35°36' E 139°57'0 0.0
2018-Apr-22 20:57N 35°36' E 139°57'0 0.0
2018-Apr-22 20:30N 35°36' E 139°57'0 0.0
2018-Apr-22 19:57N 35°36' E 139°57'0 0.0
2018-Apr-22 19:27N 35°36' E 139°57'0 0.0
2018-Apr-22 18:57N 35°36' E 139°57'0 0.0
2018-Apr-22 18:30N 35°36' E 139°57'0 0.0
2018-Apr-22 18:00N 35°36' E 139°57'0 0.0
2018-Apr-22 17:27N 35°36' E 139°57'0 0.1
2018-Apr-22 16:45N 35°36' E 139°57'0 0.2
2018-Apr-22 16:27N 35°36' E 139°57'0 0.0
2018-Apr-22 15:57N 35°36' E 139°57'0 0.0
2018-Apr-22 15:27N 35°36' E 139°57'0 0.0
2018-Apr-22 15:00N 35°36' E 139°57'0 0.0
2018-Apr-22 14:30N 35°36' E 139°57'0 0.0
2018-Apr-22 13:57N 35°36' E 139°57'0 0.0
2018-Apr-22 13:30N 35°36' E 139°57'0 0.0
2018-Apr-22 13:00N 35°36' E 139°57'0 0.0
2018-Apr-22 12:30N 35°36' E 139°57'0 0.0
2018-Apr-22 11:57N 35°36' E 139°57'0 0.0
2018-Apr-22 11:30N 35°36' E 139°57'0 0.0
2018-Apr-22 10:57N 35°36' E 139°57'0 0.0
2018-Apr-22 10:21N 35°36' E 139°57'0 0.0
2018-Apr-22 09:51N 35°36' E 139°57'0 0.0
2018-Apr-22 09:27N 35°36' E 139°57'0 0.0
2018-Apr-22 08:51N 35°36' E 139°57'0 0.0
2018-Apr-22 08:27N 35°36' E 139°57'0 0.0
2018-Apr-22 07:51N 35°36' E 139°57'0 0.0
2018-Apr-22 07:15N 35°36' E 139°57'0 0.0
2018-Apr-22 06:51N 35°36' E 139°57'0 0.0
2018-Apr-22 06:30N 35°36' E 139°57'0 0.0
2018-Apr-22 05:57N 35°36' E 139°57'0 0.0
2018-Apr-22 05:27N 35°36' E 139°57'0 0.0
2018-Apr-22 04:57N 35°36' E 139°57'0 0.0
2018-Apr-22 04:27N 35°36' E 139°57'0 0.0
2018-Apr-22 03:48N 35°36' E 139°57'0 0.0
2018-Apr-22 03:30N 35°36' E 139°57'0 0.0
2018-Apr-22 02:57N 35°36' E 139°57'0 0.0
2018-Apr-22 02:30N 35°36' E 139°57'0 0.0
2018-Apr-22 02:00N 35°36' E 139°57'0 0.0
2018-Apr-22 01:27N 35°36' E 139°57'0 0.0
2018-Apr-22 01:00N 35°36' E 139°57'0 0.0
2018-Apr-22 00:30N 35°36' E 139°57'0 0.0
2018-Apr-22 00:00N 35°36' E 139°57'0 0.0
2018-Apr-21 23:27N 35°36' E 139°57'0 0.0
2018-Apr-21 23:00N 35°36' E 139°57'0 0.0
2018-Apr-21 22:15N 35°36' E 139°57'0 0.0
2018-Apr-21 21:51N 35°36' E 139°57'0 0.0
2018-Apr-21 21:27N 35°36' E 139°57'0 0.0
2018-Apr-21 21:00N 35°36' E 139°57'0 0.0
2018-Apr-21 20:15N 35°36' E 139°57'0 0.0
2018-Apr-21 20:00N 35°36' E 139°57'0 0.0
2018-Apr-21 19:30N 35°36' E 139°57'0 0.0
2018-Apr-21 18:45N 35°36' E 139°57'0 0.0
2018-Apr-21 18:27N 35°36' E 139°57'0 0.0
2018-Apr-21 17:57N 35°36' E 139°57'0 0.0
2018-Apr-21 17:27N 35°36' E 139°57'0 0.0
2018-Apr-21 16:51N 35°36' E 139°57'0 0.0
2018-Apr-21 16:21N 35°36' E 139°57'0 0.0
2018-Apr-21 15:57N 35°36' E 139°57'0 0.0
2018-Apr-21 15:27N 35°36' E 139°57'0 0.0
2018-Apr-21 14:57N 35°36' E 139°57'0 0.0
2018-Apr-21 14:15N 35°36' E 139°57'0 0.0
2018-Apr-21 13:51N 35°36' E 139°57'0 0.0
2018-Apr-21 13:09N 35°36' E 139°57'0 0.0
2018-Apr-21 13:00N 35°36' E 139°57'0 0.0
2018-Apr-21 12:24N 35°36' E 139°57'0 0.0
2018-Apr-21 11:45N 35°36' E 139°57'0 0.0
2018-Apr-21 11:27N 35°36' E 139°57'0 0.0
2018-Apr-21 10:51N 35°36' E 139°57'0 0.0
2018-Apr-21 10:15N 35°36' E 139°57'0 0.0
2018-Apr-21 09:57N 35°36' E 139°57'0 0.0
2018-Apr-21 09:21N 35°36' E 139°57'0 0.0
2018-Apr-21 08:57N 35°36' E 139°57'0 0.0
2018-Apr-21 08:27N 35°36' E 139°57'0 0.1
2018-Apr-21 07:54N 35°36' E 139°57'0 0.1
2018-Apr-21 07:27N 35°36' E 139°57'0 0.0
2018-Apr-21 07:00N 35°36' E 139°57'0 0.1
2018-Apr-21 06:30N 35°36' E 139°57'0 0.0
2018-Apr-21 06:00N 35°36' E 139°57'0 0.0
2018-Apr-21 05:30N 35°36' E 139°57'0 0.0
2018-Apr-21 04:54N 35°36' E 139°57'0 0.0
2018-Apr-21 04:30N 35°36' E 139°57'0 0.0
2018-Apr-21 03:51N 35°36' E 139°57'0 0.0
2018-Apr-21 03:27N 35°36' E 139°57'0 0.0
2018-Apr-21 02:57N 35°36' E 139°57'3 6.1
2018-Apr-21 02:30N 35°33' E 139°58'5 9.6
2018-Apr-21 02:00N 35°30' E 140°02'0 0.1
2018-Apr-21 01:27N 35°30' E 140°02'0 0.0
2018-Apr-21 01:00N 35°30' E 140°02'0 0.0
2018-Apr-21 00:21N 35°30' E 140°02'0 0.0
2018-Apr-20 23:54N 35°30' E 140°02'0 0.0
2018-Apr-20 23:27N 35°30' E 140°02'1 1.1
2018-Apr-20 23:00N 35°30' E 140°02'1 2.1
2018-Apr-20 22:27N 35°30' E 140°00'0 0.0
2018-Apr-20 22:00N 35°30' E 140°00'0 0.0
2018-Apr-20 21:30N 35°30' E 140°00'0 0.0
2018-Apr-20 21:00N 35°30' E 140°00'0 0.0
2018-Apr-20 20:30N 35°30' E 140°00'0 0.0
2018-Apr-20 20:00N 35°30' E 140°00'0 0.0
2018-Apr-20 19:27N 35°30' E 140°00'0 0.0
2018-Apr-20 18:57N 35°30' E 140°00'0 0.0
2018-Apr-20 18:30N 35°30' E 140°00'0 0.0
2018-Apr-20 17:57N 35°30' E 140°00'0 0.1
2018-Apr-20 17:30N 35°30' E 140°00'0 0.0
2018-Apr-20 17:00N 35°30' E 140°00'0 0.0
2018-Apr-20 16:27N 35°30' E 140°00'0 0.0
2018-Apr-20 16:00N 35°30' E 140°00'0 0.1
2018-Apr-20 15:30N 35°30' E 140°00'0 0.0
2018-Apr-20 15:00N 35°30' E 140°00'0 0.0
2018-Apr-20 14:27N 35°30' E 140°00'0 0.0
2018-Apr-20 13:57N 35°30' E 140°00'0 0.0
2018-Apr-20 13:27N 35°30' E 140°00'0 0.0
2018-Apr-20 13:00N 35°30' E 140°00'0 0.1
2018-Apr-20 12:31N 35°30' E 140°00'611.5
2018-Apr-20 12:00N 35°29' E 139°53'612.8
2018-Apr-20 11:30N 35°25' E 139°47'612.7
2018-Apr-20 11:00N 35°19' E 139°44'612.6
2018-Apr-20 10:30N 35°13' E 139°47'713.1
2018-Apr-20 10:00N 35°07' E 139°46'612.9
2018-Apr-20 09:30N 35°02' E 139°40'713.2
2018-Apr-20 09:00N 34°58' E 139°34'913.9
2018-Apr-20 08:21N 34°53' E 139°25'814.3
2018-Apr-20 07:46N 34°48' E 139°17'513.8
2018-Apr-20 07:26N 34°45' E 139°12'613.6
2018-Apr-20 07:00N 34°41' E 139°07'713.5
2018-Apr-20 06:29N 34°37' E 138°60'713.1
2018-Apr-20 05:56N 34°35' E 138°51'613.6
2018-Apr-20 05:29N 34°37' E 138°44'612.9
2018-Apr-20 05:00N 34°40' E 138°37'612.8
2018-Apr-20 04:30N 34°42' E 138°30'712.8
2018-Apr-20 04:00N 34°45' E 138°23'4 0.9
2018-Apr-19 23:03N 34°47' E 138°18'0 0.9
2018-Apr-19 22:59N 34°47' E 138°18'1 2.8
2018-Apr-19 22:28N 34°46' E 138°19'0 0.0
2018-Apr-19 21:58N 34°46' E 138°19'0 0.1
2018-Apr-19 21:28N 34°46' E 138°20'0 0.0
2018-Apr-19 20:58N 34°46' E 138°20'0 0.0
2018-Apr-19 20:28N 34°46' E 138°20'0 0.0
2018-Apr-19 19:58N 34°46' E 138°20'0 0.0
2018-Apr-19 19:19N 34°46' E 138°20'0 0.0
2018-Apr-19 18:55N 34°46' E 138°20'0 0.0
2018-Apr-19 18:28N 34°46' E 138°20'0 0.0
2018-Apr-19 17:58N 34°46' E 138°20'0 0.0
2018-Apr-19 17:28N 34°46' E 138°20'0 0.0
2018-Apr-19 16:58N 34°46' E 138°20'0 0.0
2018-Apr-19 16:22N 34°46' E 138°20'0 0.0
2018-Apr-19 15:58N 34°46' E 138°20'0 0.0
2018-Apr-19 15:28N 34°46' E 138°20'0 0.0
2018-Apr-19 14:55N 34°46' E 138°20'0 0.0
2018-Apr-19 14:28N 34°46' E 138°20'3 6.5
2018-Apr-19 14:00N 34°45' E 138°23'612.1
2018-Apr-19 13:30N 34°42' E 138°30'612.5
2018-Apr-19 13:00N 34°40' E 138°37'612.3
2018-Apr-19 12:28N 34°37' E 138°44'812.4
2018-Apr-19 11:52N 34°36' E 138°53'513.3
2018-Apr-19 11:27N 34°38' E 138°59'613.2
2018-Apr-19 10:59N 34°43' E 139°04'712.4
2018-Apr-19 10:25N 34°48' E 139°09'512.3
2018-Apr-19 09:58N 34°52' E 139°13'612.3
2018-Apr-19 09:30N 34°57' E 139°17'612.1
2018-Apr-19 09:00N 34°60' E 139°24'611.6
2018-Apr-19 08:30N 35°02' E 139°30'612.4
2018-Apr-19 08:00N 35°05' E 139°37'612.7
2018-Apr-19 07:30N 35°09' E 139°43'611.9
2018-Apr-19 07:00N 35°14' E 139°46'611.7
2018-Apr-19 06:30N 35°20' E 139°43'510.8
2018-Apr-19 06:00N 35°25' E 139°44'612.0
2018-Apr-19 05:30N 35°28' E 139°50'611.9
2018-Apr-19 05:00N 35°30' E 139°57'4 8.7
2018-Apr-19 04:30N 35°30' E 140°02'0 0.1
2018-Apr-19 04:00N 35°30' E 140°02'0 0.0
2018-Apr-19 03:12N 35°30' E 140°02'0 0.0
2018-Apr-19 03:00N 35°30' E 140°02'0 0.0
2018-Apr-19 02:27N 35°30' E 140°02'0 0.0
2018-Apr-19 01:54N 35°30' E 140°02'0 0.0
2018-Apr-19 00:57N 35°30' E 140°02'0 0.0
2018-Apr-19 00:24N 35°30' E 140°02'0 0.0
2018-Apr-18 23:54N 35°30' E 140°02'0 0.0
2018-Apr-18 23:27N 35°30' E 140°02'0 0.0
2018-Apr-18 23:00N 35°30' E 140°02'2 3.2
2018-Apr-18 22:30N 35°30' E 140°00'0 0.0
2018-Apr-18 21:59N 35°30' E 140°00'0 0.0
2018-Apr-18 21:11N 35°30' E 140°00'0 0.0
2018-Apr-18 20:59N 35°30' E 140°00'0 0.0
2018-Apr-18 20:29N 35°30' E 140°00'0 0.1
2018-Apr-18 19:56N 35°30' E 140°00'0 0.1
2018-Apr-18 19:29N 35°30' E 140°00'0 0.0
2018-Apr-18 18:59N 35°30' E 140°00'0 0.0
2018-Apr-18 18:29N 35°30' E 140°00'0 0.0
2018-Apr-18 17:58N 35°30' E 140°00'0 0.0
2018-Apr-18 17:29N 35°30' E 140°00'0 0.0
2018-Apr-18 16:59N 35°30' E 140°00'0 0.0
2018-Apr-18 16:29N 35°30' E 140°00'0 0.1
2018-Apr-18 15:59N 35°30' E 140°00'0 0.0
2018-Apr-18 15:23N 35°30' E 140°00'0 0.0
2018-Apr-18 14:59N 35°30' E 140°00'0 0.0
2018-Apr-18 14:23N 35°30' E 140°00'0 0.0
2018-Apr-18 13:59N 35°30' E 140°00'0 0.0
2018-Apr-18 13:26N 35°30' E 140°00'0 0.0
2018-Apr-18 12:53N 35°30' E 140°00'0 0.0
2018-Apr-18 12:29N 35°30' E 140°00'0 0.0
2018-Apr-18 11:59N 35°30' E 140°00'0 0.0
2018-Apr-18 11:29N 35°30' E 140°00'3 6.0
2018-Apr-18 11:00N 35°30' E 139°57'612.0
2018-Apr-18 10:30N 35°27' E 139°50'612.1
2018-Apr-18 10:00N 35°23' E 139°46'611.1
2018-Apr-18 09:30N 35°17' E 139°46'612.3
2018-Apr-18 09:00N 35°11' E 139°47'612.4
2018-Apr-18 08:30N 35°05' E 139°45'612.4
2018-Apr-18 08:00N 35°01' E 139°39'612.7
2018-Apr-18 07:30N 34°57' E 139°33'913.0
2018-Apr-18 06:49N 34°52' E 139°24'712.8
2018-Apr-18 06:17N 34°48' E 139°17'413.4
2018-Apr-18 05:59N 34°45' E 139°13'712.8
2018-Apr-18 05:27N 34°42' E 139°07'711.9
2018-Apr-18 04:51N 34°37' E 138°59'411.8
2018-Apr-18 04:30N 34°35' E 138°55'713.1
2018-Apr-18 03:56N 34°36' E 138°46'612.8
2018-Apr-18 03:30N 34°39' E 138°40'712.6
2018-Apr-18 02:58N 34°41' E 138°33'612.4
2018-Apr-18 02:28N 34°44' E 138°26'611.8
2018-Apr-18 01:59N 34°46' E 138°20'1 0.5
2018-Apr-17 22:54N 34°47' E 138°18'1 1.9
2018-Apr-17 22:18N 34°46' E 138°19'0 0.0
2018-Apr-17 21:42N 34°46' E 138°19'0 0.0
2018-Apr-17 21:27N 34°46' E 138°19'0 0.0
2018-Apr-17 20:57N 34°46' E 138°19'0 0.0
2018-Apr-17 20:30N 34°46' E 138°19'0 0.0
2018-Apr-17 19:57N 34°46' E 138°19'0 0.0
2018-Apr-17 19:30N 34°46' E 138°19'0 0.0
2018-Apr-17 18:57N 34°46' E 138°19'0 0.0
2018-Apr-17 18:27N 34°46' E 138°19'0 0.0
2018-Apr-17 17:48N 34°46' E 138°19'0 0.0
2018-Apr-17 16:03N 34°46' E 138°19'0 0.0
2018-Apr-17 15:51N 34°46' E 138°19'1 3.1
2018-Apr-17 15:29N 34°46' E 138°20'613.0
2018-Apr-17 15:00N 34°44' E 138°28'713.0
2018-Apr-17 14:29N 34°41' E 138°35'712.8
2018-Apr-17 13:58N 34°38' E 138°42'613.3
2018-Apr-17 13:31N 34°35' E 138°49'712.7
2018-Apr-17 12:58N 34°36' E 138°57'612.7
2018-Apr-17 12:30N 34°41' E 139°02'713.7
2018-Apr-17 11:59N 34°47' E 139°08'713.8
2018-Apr-17 11:27N 34°52' E 139°13'613.2
2018-Apr-17 10:59N 34°57' E 139°18'612.4
2018-Apr-17 10:29N 34°60' E 139°25'611.9
2018-Apr-17 09:59N 35°02' E 139°31'612.6
2018-Apr-17 09:30N 35°05' E 139°38'713.4
2018-Apr-17 09:00N 35°10' E 139°44'612.3
2018-Apr-17 08:30N 35°16' E 139°46'612.4
2018-Apr-17 08:00N 35°21' E 139°42'611.8
2018-Apr-17 07:30N 35°26' E 139°46'612.7
2018-Apr-17 07:00N 35°30' E 139°52'612.1
2018-Apr-17 06:30N 35°30' E 139°59'2 4.9
2018-Apr-17 06:00N 35°30' E 140°02'0 0.0
2018-Apr-17 05:30N 35°30' E 140°02'0 0.0
2018-Apr-17 05:00N 35°30' E 140°02'0 0.0
2018-Apr-17 04:30N 35°30' E 140°02'0 0.0
2018-Apr-17 03:59N 35°30' E 140°02'0 0.0
2018-Apr-17 03:30N 35°30' E 140°02'1 2.1
2018-Apr-17 02:58N 35°30' E 140°01'612.9
2018-Apr-17 02:30N 35°36' E 139°59'  

Dump ship's entire track history